createdAt,value
2022-12-04T00:01:21.363Z,100136.78
2022-12-04T00:03:52.209Z,100122.19
2022-12-04T00:06:20.408Z,100133.53
2022-12-04T00:08:48.596Z,100128.50
2022-12-04T00:11:21.856Z,100121.19
2022-12-04T00:13:50.072Z,100134.34
2022-12-04T00:16:24.383Z,100135.56
2022-12-04T00:18:52.261Z,100132.91
2022-12-04T00:21:21.228Z,100139.81
2022-12-04T00:23:48.946Z,100126.44
2022-12-04T00:26:24.984Z,100133.72
2022-12-04T00:28:53.143Z,100120.53
2022-12-04T00:31:23.606Z,100107.97
2022-12-04T00:33:51.885Z,100109.56
2022-12-04T00:36:22.801Z,100096.81
2022-12-04T00:38:50.858Z,100108.34
2022-12-04T00:41:21.126Z,100114.63
2022-12-04T00:43:48.815Z,100105.28
2022-12-04T00:46:16.603Z,100110.34
2022-12-04T00:48:45.178Z,100110.97
2022-12-04T00:51:15.742Z,100103.03
2022-12-04T00:53:43.708Z,100105.47
2022-12-04T00:56:13.952Z,100107.31
2022-12-04T00:58:42.113Z,100098.22
2022-12-04T01:01:14.665Z,100107.13
2022-12-04T01:03:42.977Z,100105.28
2022-12-04T01:06:31.993Z,100093.53
2022-12-04T01:09:01.134Z,100091.50
2022-12-04T01:11:30.080Z,100092.31
2022-12-04T01:13:58.636Z,100087.47
2022-12-04T01:16:31.021Z,100091.09
2022-12-04T01:18:58.704Z,100089.91
2022-12-04T01:21:26.312Z,100086.88
2022-12-04T01:23:54.212Z,100090.53
2022-12-04T01:26:22.165Z,100086.06
2022-12-04T01:28:49.627Z,100075.53
2022-12-04T01:31:19.951Z,100071.88
2022-12-04T01:33:48.377Z,100069.66
2022-12-04T01:36:18.819Z,100049.03
2022-12-04T01:38:46.502Z,100065.59
2022-12-04T01:41:17.318Z,100055.28
2022-12-04T01:43:44.918Z,100062.75
2022-12-04T01:46:12.799Z,100053.63
2022-12-04T01:48:54.692Z,100049.78
2022-12-04T01:51:34.869Z,100038.44
2022-12-04T01:54:12.238Z,100037.84
2022-12-04T01:56:53.841Z,100035.22
2022-12-04T01:59:27.751Z,100038.72
2022-12-04T02:02:15.212Z,100041.31
2022-12-04T02:04:44.026Z,100030.44
2022-12-04T02:07:12.240Z,100029.25
2022-12-04T02:09:41.176Z,100029.25
2022-12-04T02:12:22.968Z,100030.81
2022-12-04T02:15:05.584Z,100026.34
2022-12-04T02:17:48.797Z,100030.41
2022-12-04T02:20:34.354Z,100021.47
2022-12-04T02:23:13.884Z,100011.56
2022-12-04T02:26:06.007Z,100017.06
2022-12-04T02:29:01.293Z,100005.13
2022-12-04T02:31:59.293Z,100004.53
2022-12-04T02:34:40.487Z,100002.50
2022-12-04T02:37:19.958Z,100001.91
2022-12-04T02:40:05.306Z,99999.28
2022-12-04T02:42:49.159Z,99997.44
2022-12-04T02:45:24.437Z,100001.91
2022-12-04T02:47:53.981Z,99999.69
2022-12-04T02:50:24.442Z,99994.44
2022-12-04T02:52:57.886Z,99999.50
2022-12-04T02:55:32.338Z,99995.22
2022-12-04T02:58:07.969Z,99998.06
2022-12-04T03:00:37.981Z,99997.88
2022-12-04T03:03:21.333Z,99999.91
2022-12-04T03:06:03.006Z,99998.06
2022-12-04T03:08:38.859Z,100001.13
2022-12-04T03:11:06.799Z,99988.41
2022-12-04T03:13:46.399Z,99987.81
2022-12-04T03:16:23.504Z,99982.97
2022-12-04T03:19:04.114Z,99992.06
2022-12-04T03:21:35.930Z,99988.84
2022-12-04T03:24:07.374Z,99982.97
2022-12-04T03:26:44.424Z,99985.78
2022-12-04T03:29:33.296Z,99996.75
2022-12-04T03:32:08.681Z,99980.13
2022-12-04T03:34:43.627Z,99976.47
2022-12-04T03:37:16.486Z,99980.94
2022-12-04T03:39:50.824Z,99986.41
2022-12-04T03:42:26.421Z,99979.53
2022-12-04T03:45:10.056Z,99976.09
2022-12-04T03:48:10.167Z,99975.47
2022-12-04T03:50:48.715Z,99985.41
2022-12-04T03:53:21.216Z,99985.63
2022-12-04T03:56:14.919Z,99993.91
2022-12-04T03:58:47.601Z,99986.00
2022-12-04T04:01:19.655Z,99993.47
2022-12-04T04:03:51.126Z,99982.16
2022-12-04T04:06:31.446Z,99993.50
2022-12-04T04:09:06.630Z,99992.28
2022-12-04T04:11:43.442Z,99993.50
2022-12-04T04:14:40.779Z,99979.53
2022-12-04T04:17:34.895Z,99988.44
2022-12-04T04:20:28.662Z,99968.41
2022-12-04T04:23:17.521Z,99963.56
2022-12-04T04:25:47.575Z,99956.25
2022-12-04T04:28:45.117Z,99956.25
2022-12-04T04:31:28.996Z,99960.31
2022-12-04T04:34:16.787Z,99954.22
2022-12-04T04:37:02.885Z,99943.09
2022-12-04T04:39:48.800Z,99943.69
2022-12-04T04:42:28.300Z,99937.22
2022-12-04T04:45:16.553Z,99938.63
2022-12-04T04:47:57.021Z,99926.47
2022-12-04T04:50:24.780Z,99931.53
2022-12-04T04:52:58.259Z,99926.25
2022-12-04T04:55:26.127Z,99929.47
2022-12-04T04:57:53.498Z,99926.25
2022-12-04T05:00:22.900Z,99923.41
2022-12-04T05:02:50.640Z,99916.72
2022-12-04T05:05:18.429Z,99921.94
2022-12-04T05:07:46.297Z,99917.72
2022-12-04T05:10:14.295Z,99911.38
2022-12-04T05:12:41.926Z,99902.47
2022-12-04T05:15:09.836Z,99902.06
2022-12-04T05:17:37.453Z,99891.72
2022-12-04T05:20:06.296Z,99895.56
2022-12-04T05:22:36.032Z,99894.28
2022-12-04T05:25:04.951Z,99896.28
2022-12-04T05:27:33.111Z,99887.13
2022-12-04T05:30:00.607Z,99890.31
2022-12-04T05:32:29.711Z,99891.31
2022-12-04T05:34:58.368Z,99862.28
2022-12-04T05:37:26.477Z,99890.47
2022-12-04T05:39:54.811Z,99901.22
2022-12-04T05:42:22.731Z,99901.38
2022-12-04T05:44:50.494Z,99892.03
2022-12-04T05:47:18.035Z,99892.81
2022-12-04T05:49:45.476Z,99884.91
2022-12-04T05:52:13.301Z,99882.00
2022-12-04T05:54:40.835Z,99869.41
2022-12-04T05:57:08.536Z,99869.34
2022-12-04T05:59:36.232Z,99866.69
2022-12-04T06:02:03.953Z,99867.03
2022-12-04T06:04:31.524Z,99852.03
2022-12-04T06:06:59.087Z,99865.31
2022-12-04T06:09:26.532Z,99852.13
2022-12-04T06:11:58.309Z,99865.78
2022-12-04T06:14:26.085Z,99859.13
2022-12-04T06:16:53.865Z,99867.78
2022-12-04T06:19:22.916Z,99874.88
2022-12-04T06:21:52.724Z,99871.19
2022-12-04T06:24:24.805Z,99872.50
2022-12-04T06:27:26.904Z,99864.75
2022-12-04T06:29:45.466Z,99861.50
2022-12-04T06:32:17.776Z,99860.03
2022-12-04T06:34:52.795Z,99826.66
2022-12-04T06:37:22.348Z,99858.13
2022-12-04T06:39:49.961Z,99858.13
2022-12-04T06:42:17.612Z,99850.44
2022-12-04T06:44:45.116Z,99839.06
2022-12-04T06:47:12.587Z,99836.66
2022-12-04T06:49:40.152Z,99839.97
2022-12-04T06:52:07.597Z,99831.00
2022-12-04T06:54:35.085Z,99832.91
2022-12-04T06:57:02.660Z,99829.47
2022-12-04T06:59:30.347Z,99830.03
2022-12-04T07:01:57.886Z,99821.91
2022-12-04T07:04:27.054Z,99825.50
2022-12-04T07:06:55.012Z,99813.91
2022-12-04T07:09:23.544Z,99806.28
2022-12-04T07:11:51.028Z,99793.66
2022-12-04T07:14:18.626Z,99801.44
2022-12-04T07:16:46.163Z,99800.00
2022-12-04T07:19:14.733Z,99789.72
2022-12-04T07:21:43.232Z,99780.53
2022-12-04T07:24:16.459Z,99772.28
2022-12-04T07:26:44.388Z,99775.97
2022-12-04T07:29:11.861Z,99794.84
2022-12-04T07:31:39.459Z,99791.97
2022-12-04T07:34:06.959Z,99783.91
2022-12-04T07:36:34.513Z,99783.69
2022-12-04T07:39:01.993Z,99786.47
2022-12-04T07:41:29.500Z,99785.47
2022-12-04T07:43:57.102Z,99775.09
2022-12-04T07:46:28.252Z,99768.88
2022-12-04T07:48:57.849Z,99764.41
2022-12-04T07:51:28.721Z,99760.03
2022-12-04T07:54:03.530Z,99756.47
2022-12-04T07:56:33.029Z,99749.72
2022-12-04T07:59:00.997Z,99743.31
2022-12-04T08:01:29.110Z,99754.63
2022-12-04T08:03:59.212Z,99741.97
2022-12-04T08:06:29.140Z,99736.38
2022-12-04T08:08:57.695Z,99739.78
2022-12-04T08:11:27.622Z,99736.84
2022-12-04T08:14:00.360Z,99716.50
2022-12-04T08:16:30.351Z,99731.72
2022-12-04T08:18:58.677Z,99734.44
2022-12-04T08:21:29.025Z,99729.91
2022-12-04T08:23:58.616Z,99734.88
2022-12-04T08:26:28.508Z,99727.19
2022-12-04T08:28:57.549Z,99720.63
2022-12-04T08:31:27.905Z,99715.34
2022-12-04T08:33:57.401Z,99722.47
2022-12-04T08:36:25.161Z,99716.03
2022-12-04T08:38:53.349Z,99716.13
2022-12-04T08:41:24.332Z,99708.91
2022-12-04T08:43:56.756Z,99707.50
2022-12-04T08:46:26.818Z,99700.75
2022-12-04T08:48:55.151Z,99703.16
2022-12-04T08:51:32.344Z,99709.25
2022-12-04T08:54:02.551Z,99707.31
2022-12-04T08:56:31.502Z,99693.84
2022-12-04T08:59:00.625Z,99681.56
2022-12-04T09:01:29.305Z,99667.66
2022-12-04T09:03:57.544Z,99687.53
2022-12-04T09:06:25.443Z,99682.47
2022-12-04T09:08:55.191Z,99680.75
2022-12-04T09:11:25.219Z,99670.84
2022-12-04T09:13:53.280Z,99666.47
2022-12-04T09:16:23.678Z,99669.91
2022-12-04T09:18:51.581Z,99673.13
2022-12-04T09:21:20.983Z,99673.94
2022-12-04T09:23:48.597Z,99658.28
2022-12-04T09:26:19.695Z,99662.88
2022-12-04T09:28:48.065Z,99653.13
2022-12-04T09:31:16.978Z,99665.09
2022-12-04T09:33:44.796Z,99665.88
2022-12-04T09:36:16.498Z,99651.50
2022-12-04T09:38:45.893Z,99664.50
2022-12-04T09:41:52.148Z,99652.19
2022-12-04T09:44:53.985Z,99646.09
2022-12-04T09:47:37.546Z,99640.69
2022-12-04T09:50:16.377Z,99633.66
2022-12-04T09:53:08.618Z,99636.19
2022-12-04T09:55:55.092Z,99633.06
2022-12-04T09:58:29.344Z,99630.16
2022-12-04T10:00:58.282Z,99622.47
2022-12-04T10:03:28.698Z,99620.72
2022-12-04T10:06:06.767Z,99614.16
2022-12-04T10:08:43.149Z,99608.28
2022-12-04T10:11:13.743Z,99603.81
2022-12-04T10:13:41.200Z,99596.19
2022-12-04T10:16:44.616Z,99601.47
2022-12-04T10:20:07.876Z,99604.13
2022-12-04T10:22:49.903Z,99596.63
2022-12-04T10:25:24.606Z,99599.84
2022-12-04T10:28:25.819Z,99597.38
2022-12-04T10:30:58.583Z,99602.09
2022-12-04T10:33:55.890Z,99595.16
2022-12-04T10:36:30.141Z,99588.50
2022-12-04T10:39:04.556Z,99593.41
2022-12-04T10:41:43.889Z,99573.00
2022-12-04T10:44:16.420Z,99565.69
2022-12-04T10:46:46.486Z,99569.56
2022-12-04T10:49:26.320Z,99567.78
2022-12-04T10:51:55.193Z,99579.97
2022-12-04T10:54:30.685Z,99581.59
2022-12-04T10:57:07.400Z,99578.44
2022-12-04T10:59:35.711Z,99576.03
2022-12-04T11:02:07.132Z,99568.19
2022-12-04T11:04:36.447Z,99575.91
2022-12-04T11:07:22.343Z,99562.19
2022-12-04T11:10:05.789Z,99569.31
2022-12-04T11:12:33.275Z,99567.41
2022-12-04T11:15:03.174Z,99563.53
2022-12-04T11:17:31.723Z,99560.34
2022-12-04T11:20:16.199Z,99569.97
2022-12-04T11:23:00.014Z,99561.28
2022-12-04T11:25:32.908Z,99548.13
2022-12-04T11:28:02.803Z,99567.88
2022-12-04T11:30:35.345Z,99564.78
2022-12-04T11:33:05.066Z,99563.25
2022-12-04T11:35:33.333Z,99567.88
2022-12-04T11:38:10.459Z,99560.00
2022-12-04T11:40:38.227Z,99564.19
2022-12-04T11:43:30.613Z,99567.41
2022-12-04T11:46:03.565Z,99571.25
2022-12-04T11:48:32.908Z,99564.44
2022-12-04T11:51:21.853Z,99566.84
2022-12-04T11:54:22.369Z,99567.41
2022-12-04T11:57:17.036Z,99563.25
2022-12-04T11:59:53.891Z,99561.16
2022-12-04T12:02:43.401Z,99563.66
2022-12-04T12:05:27.453Z,99577.91
2022-12-04T12:08:46.043Z,99562.13
2022-12-04T12:12:08.003Z,99568.13
2022-12-04T12:14:50.246Z,99562.38
2022-12-04T12:17:36.958Z,99559.47
2022-12-04T12:20:30.176Z,99562.13
2022-12-04T12:23:36.074Z,99552.00
2022-12-04T12:26:17.545Z,99554.00
2022-12-04T12:29:11.699Z,99551.91
2022-12-04T12:32:17.768Z,99546.59
2022-12-04T12:34:46.810Z,99539.63
2022-12-04T12:37:34.194Z,99533.59
2022-12-04T12:40:11.110Z,99540.31
2022-12-04T12:43:09.973Z,99528.78
2022-12-04T12:45:54.999Z,99534.47
2022-12-04T12:48:50.671Z,99527.81
2022-12-04T12:51:30.477Z,99533.59
2022-12-04T12:54:31.425Z,99537.91
2022-12-04T12:57:07.733Z,99535.34
2022-12-04T12:59:35.884Z,99524.13
2022-12-04T13:02:18.543Z,99521.16
2022-12-04T13:04:50.649Z,99536.72
2022-12-04T13:07:18.554Z,99531.34
2022-12-04T13:09:55.517Z,99523.38
2022-12-04T13:12:25.415Z,99526.41
2022-12-04T13:14:53.006Z,99522.09
2022-12-04T13:17:37.396Z,99528.66
2022-12-04T13:20:13.727Z,99526.81
2022-12-04T13:23:11.884Z,99517.63
2022-12-04T13:26:03.585Z,99515.84
2022-12-04T13:28:57.196Z,99519.53
2022-12-04T13:31:54.399Z,99512.78
2022-12-04T13:34:33.941Z,99518.69
2022-12-04T13:37:20.259Z,99507.66
2022-12-04T13:40:27.088Z,99506.13
2022-12-04T13:43:24.163Z,99517.53
2022-12-04T13:45:54.637Z,99510.88
2022-12-04T13:48:39.896Z,99509.63
2022-12-04T13:51:23.847Z,99517.66
2022-12-04T13:54:04.350Z,99510.81
2022-12-04T13:56:32.353Z,99503.03
2022-12-04T13:59:20.345Z,99513.47
2022-12-04T14:01:51.282Z,99501.78
2022-12-04T14:04:31.808Z,99509.81
2022-12-04T14:07:04.136Z,99497.53
2022-12-04T14:09:42.520Z,99497.09
2022-12-04T14:12:14.373Z,99487.66
2022-12-04T14:14:51.381Z,99501.34
2022-12-04T14:17:32.335Z,99482.72
2022-12-04T14:20:08.424Z,99473.91
2022-12-04T14:22:38.769Z,99493.94
2022-12-04T14:25:20.885Z,99502.69
2022-12-04T14:27:53.958Z,99499.25
2022-12-04T14:30:37.035Z,99500.53
2022-12-04T14:33:21.212Z,99498.16
2022-12-04T14:36:04.538Z,99505.53
2022-12-04T14:38:33.458Z,99478.31
2022-12-04T14:41:02.082Z,99485.84
2022-12-04T14:43:40.724Z,99491.78
2022-12-04T14:46:24.081Z,99494.72
2022-12-04T14:49:15.171Z,99500.63
2022-12-04T14:51:51.026Z,99497.63
2022-12-04T14:54:45.289Z,99497.97
2022-12-04T14:57:50.106Z,99481.22
2022-12-04T15:00:23.013Z,99484.38
2022-12-04T15:02:58.387Z,99486.00
2022-12-04T15:05:29.628Z,99487.56
2022-12-04T15:08:03.140Z,99485.22
2022-12-04T15:10:51.569Z,99468.50
2022-12-04T15:13:30.111Z,99485.78
2022-12-04T15:15:57.981Z,99484.44
2022-12-04T15:18:25.682Z,99475.97
2022-12-04T15:21:00.771Z,99484.22
2022-12-04T15:23:31.578Z,99480.50
2022-12-04T15:26:02.210Z,99478.91
2022-12-04T15:28:35.238Z,99470.94
2022-12-04T15:31:07.528Z,99472.28
2022-12-04T15:33:37.382Z,99475.50
2022-12-04T15:36:14.698Z,99475.00
2022-12-04T15:38:42.755Z,99468.59
2022-12-04T15:41:36.997Z,99477.75
2022-12-04T15:44:35.184Z,99480.72
2022-12-04T15:47:15.820Z,99484.31
2022-12-04T15:49:43.368Z,99481.41
2022-12-04T15:52:10.938Z,99475.34
2022-12-04T15:54:44.248Z,99472.94
2022-12-04T15:57:40.365Z,99474.09
2022-12-04T16:00:26.648Z,99477.28
2022-12-04T16:02:55.358Z,99462.03
2022-12-04T16:05:22.812Z,99475.66
2022-12-04T16:07:58.042Z,99487.38
2022-12-04T16:10:29.169Z,99478.09
2022-12-04T16:12:59.222Z,99471.44
2022-12-04T16:15:39.652Z,99470.94
2022-12-04T16:18:12.002Z,99473.59
2022-12-04T16:20:41.433Z,99471.00
2022-12-04T16:23:10.257Z,99488.34
2022-12-04T16:25:38.106Z,99479.28
2022-12-04T16:28:05.781Z,99479.03
2022-12-04T16:30:36.707Z,99483.56
2022-12-04T16:33:04.321Z,99476.13
2022-12-04T16:35:32.040Z,99484.38
2022-12-04T16:37:59.711Z,99484.13
2022-12-04T16:40:27.409Z,99478.56
2022-12-04T16:42:56.225Z,99475.59
2022-12-04T16:45:30.008Z,99474.03
2022-12-04T16:47:58.507Z,99480.97
2022-12-04T16:50:27.806Z,99484.16
2022-12-04T16:52:55.867Z,99485.22
2022-12-04T16:55:35.932Z,99483.94
2022-12-04T16:58:06.000Z,99472.44
2022-12-04T17:00:33.717Z,99487.06
2022-12-04T17:03:04.443Z,99489.22
2022-12-04T17:05:36.131Z,99496.38
2022-12-04T17:08:03.837Z,99487.38
2022-12-04T17:10:31.885Z,99484.97
2022-12-04T17:12:59.510Z,99498.59
2022-12-04T17:15:27.019Z,99505.41
2022-12-04T17:17:54.822Z,99491.63
2022-12-04T17:20:23.112Z,99505.19
2022-12-04T17:22:51.070Z,99507.06
2022-12-04T17:25:19.008Z,99505.00
2022-12-04T17:27:47.001Z,99513.22
2022-12-04T17:30:15.198Z,99527.81
2022-12-04T17:32:42.857Z,99522.81
2022-12-04T17:35:12.768Z,99541.94
2022-12-04T17:37:40.529Z,99532.53
2022-12-04T17:40:11.909Z,99527.16
2022-12-04T17:42:39.862Z,99541.63
2022-12-04T17:45:12.419Z,99521.25
2022-12-04T17:47:40.125Z,99542.63
2022-12-04T17:50:10.467Z,99550.25
2022-12-04T17:52:38.077Z,99541.28
2022-12-04T17:55:08.341Z,99546.13
2022-12-04T17:57:36.558Z,99545.72
2022-12-04T18:00:04.469Z,99549.41
2022-12-04T18:02:41.786Z,99546.19
2022-12-04T18:05:10.146Z,99542.56
2022-12-04T18:07:38.336Z,99547.72
2022-12-04T18:10:07.139Z,99555.41
2022-12-04T18:12:34.904Z,99556.03
2022-12-04T18:15:02.607Z,99556.66
2022-12-04T18:17:31.440Z,99553.25
2022-12-04T18:20:04.239Z,99548.22
2022-12-04T18:22:32.993Z,99551.75
2022-12-04T18:25:00.935Z,99558.06
2022-12-04T18:27:28.674Z,99553.25
2022-12-04T18:29:56.489Z,99564.22
2022-12-04T18:32:24.284Z,99562.38
2022-12-04T18:34:51.763Z,99565.03
2022-12-04T18:37:19.399Z,99564.22
2022-12-04T18:39:49.320Z,99569.94
2022-12-04T18:42:19.249Z,99570.22
2022-12-04T18:44:47.564Z,99577.91
2022-12-04T18:47:15.080Z,99577.06
2022-12-04T18:49:42.593Z,99583.91
2022-12-04T18:52:10.063Z,99595.47
2022-12-04T18:54:37.544Z,99584.53
2022-12-04T18:57:05.301Z,99587.69
2022-12-04T18:59:33.390Z,99594.34
2022-12-04T19:02:01.586Z,99586.41
2022-12-04T19:04:33.091Z,99590.69
2022-12-04T19:07:00.688Z,99575.97
2022-12-04T19:10:08.865Z,99591.50
2022-12-04T19:12:17.200Z,99599.44
2022-12-04T19:14:44.738Z,99600.56
2022-12-04T19:17:12.399Z,99599.22
2022-12-04T19:19:39.841Z,99603.44
2022-12-04T19:22:07.397Z,99604.31
2022-12-04T19:24:34.847Z,99606.19
2022-12-04T19:27:10.230Z,99607.41
2022-12-04T19:29:40.327Z,99598.72
2022-12-04T19:32:09.295Z,99610.13
2022-12-04T19:34:36.876Z,99606.94
2022-12-04T19:37:04.376Z,99603.03
2022-12-04T19:39:32.320Z,99610.53
2022-12-04T19:41:59.953Z,99609.53
2022-12-04T19:47:22.429Z,99604.22
2022-12-04T19:49:50.168Z,99593.53
2022-12-04T19:52:23.569Z,99608.78
2022-12-04T19:54:54.258Z,99593.28
2022-12-04T19:57:21.713Z,99601.81
2022-12-04T20:00:00.554Z,99606.00
2022-12-04T20:02:28.325Z,99615.88
2022-12-04T20:04:55.748Z,99613.22
2022-12-04T20:07:23.340Z,99619.91
2022-12-04T20:09:54.807Z,99619.03
2022-12-04T20:12:22.348Z,99626.75
2022-12-04T20:14:49.857Z,99629.91
2022-12-04T20:17:17.488Z,99624.84
2022-12-04T20:19:45.108Z,99621.16
2022-12-04T20:22:12.567Z,99630.50
2022-12-04T20:24:40.103Z,99625.97
2022-12-04T20:27:07.695Z,99622.19
2022-12-04T20:29:35.121Z,99629.97
2022-12-04T20:32:02.844Z,99638.16
2022-12-04T20:34:30.341Z,99622.44
2022-12-04T20:36:59.225Z,99626.22
2022-12-04T20:39:26.793Z,99627.25
2022-12-04T20:41:54.361Z,99628.53
2022-12-04T20:44:22.005Z,99629.78
2022-12-04T20:46:50.181Z,99628.16
2022-12-04T20:49:21.740Z,99623.41
2022-12-04T20:51:51.581Z,99625.50
2022-12-04T20:54:21.369Z,99617.47
2022-12-04T20:56:49.744Z,99631.69
2022-12-04T20:59:18.919Z,99638.59
2022-12-04T21:01:47.561Z,99640.19
2022-12-04T21:04:18.183Z,99645.25
2022-12-04T21:06:47.241Z,99638.34
2022-12-04T21:09:19.637Z,99644.97
2022-12-04T21:11:52.700Z,99643.34
2022-12-04T21:14:42.087Z,99650.13
2022-12-04T21:17:18.713Z,99646.91
2022-12-04T21:19:47.840Z,99647.34
2022-12-04T21:22:16.766Z,99648.38
2022-12-04T21:24:44.287Z,99647.00
2022-12-04T21:27:17.376Z,99658.22
2022-12-04T21:29:48.338Z,99639.69
2022-12-04T21:32:15.963Z,99664.28
2022-12-04T21:34:43.645Z,99656.88
2022-12-04T21:37:11.168Z,99647.84
2022-12-04T21:39:39.384Z,99642.72
2022-12-04T21:42:25.319Z,99656.38
2022-12-04T21:44:52.831Z,99654.75
2022-12-04T21:47:20.508Z,99657.22
2022-12-04T21:49:48.164Z,99666.25
2022-12-04T21:52:19.556Z,99671.38
2022-12-04T21:54:52.599Z,99632.19
2022-12-04T21:57:21.087Z,99662.53
2022-12-04T21:59:50.897Z,99647.03
2022-12-04T22:02:18.636Z,99660.47
2022-12-04T22:04:46.257Z,99668.41
2022-12-04T22:07:14.030Z,99662.94
2022-12-04T22:09:42.104Z,99657.47
2022-12-04T22:12:26.819Z,99669.53
2022-12-04T22:14:57.335Z,99671.38
2022-12-04T22:17:24.904Z,99668.19
2022-12-04T22:19:52.470Z,99669.72
2022-12-04T22:22:20.023Z,99669.38
2022-12-04T22:24:48.222Z,99672.63
2022-12-04T22:27:16.668Z,99675.75
2022-12-04T22:29:51.624Z,99676.69
2022-12-04T22:32:20.465Z,99670.63
2022-12-04T22:34:49.574Z,99673.78
2022-12-04T22:37:17.599Z,99672.91
2022-12-04T22:39:45.337Z,99673.81
2022-12-04T22:42:12.935Z,99666.22
2022-12-04T22:44:41.100Z,99665.16
2022-12-04T22:47:08.728Z,99674.97
2022-12-04T22:49:36.479Z,99674.81
2022-12-04T22:52:04.211Z,99674.50
2022-12-04T22:54:31.784Z,99670.72
2022-12-04T22:56:59.323Z,99675.22
2022-12-04T22:59:26.899Z,99684.94
2022-12-04T23:01:54.487Z,99675.84
2022-12-04T23:04:24.607Z,99674.06
2022-12-04T23:06:52.215Z,99680.41
2022-12-04T23:09:20.243Z,99682.94
2022-12-04T23:11:52.444Z,99671.84
2022-12-04T23:14:20.258Z,99678.22
2022-12-04T23:16:48.368Z,99687.03
2022-12-04T23:19:18.144Z,99686.78
2022-12-04T23:21:46.293Z,99684.69
2022-12-04T23:24:14.374Z,99676.84
2022-12-04T23:26:44.662Z,99664.13
2022-12-04T23:29:30.057Z,99670.97
2022-12-04T23:32:00.109Z,99670.16
2022-12-04T23:34:27.787Z,99669.38
2022-12-04T23:36:55.151Z,99665.09
2022-12-04T23:39:22.648Z,99678.66
2022-12-04T23:41:50.070Z,99678.28
2022-12-04T23:44:17.399Z,99666.97
2022-12-04T23:46:44.903Z,99677.34
2022-12-04T23:49:12.276Z,99680.22
2022-12-04T23:51:39.731Z,99688.53
2022-12-04T23:54:07.365Z,99677.75
2022-12-04T23:56:34.981Z,99691.72
2022-12-04T23:59:02.483Z,99688.28
